Startpagina
METAR-TAF:

METAR-TAF

Vliegvelden :

Ballina Airport

Ballina, Australië

breedte: 28-50-00S, lengte: 153-33-42E, hoogte: 2 m

Actueel weer

Dit bericht is 39 minuten geleden gemaakt, om 23:00 UTC
Wind 5 kt uit het noordwesten, variërend tussen het westen en het noorden
Temperatuur 26°C
Vochtigheid 70%
Druk 1010 hPa
Zicht 10 km of meer

METAR: YBNA 132300Z AUTO 32005KT 270V360 9999 // NCD 26/20 Q1010

Tijdstip: 10:39 (23:39 UTC)


TAF: ontbreekt

Waarnemingen en weersverwachtingen van meer dan 4000 vliegvelden (METAR en TAF).

De beschikbare stations zijn de gele en rode punten op de kaart.

Ga met uw muis naar het station om de naam te zien.

Klik dan om waarnemingen en weersverwachtingen te zien.

kaart wijzigen: klik op de groene knoppen met een zwart kruis om in te zoomen, op de groene knop met een streepje om uit te zoomen of op de groene pijlen voor aangrenzende kaarten.


METAR-TAF: